createdAt,value
2019-03-29T00:00:59.890Z,45.63
2019-03-29T00:03:29.130Z,44.80
2019-03-29T00:05:59.511Z,42.17
2019-03-29T00:08:27.292Z,46.60
2019-03-29T00:10:54.510Z,45.43
2019-03-29T00:13:23.019Z,45.83
2019-03-29T00:15:50.654Z,55.13
2019-03-29T00:18:18.102Z,48.00
2019-03-29T00:20:47.147Z,46.73
2019-03-29T00:23:14.707Z,42.93
2019-03-29T00:25:42.099Z,48.20
2019-03-29T00:28:09.547Z,53.07
2019-03-29T00:30:38.039Z,57.93
2019-03-29T00:33:05.724Z,54.00
2019-03-29T00:35:33.395Z,59.27
2019-03-29T00:38:01.540Z,58.17
2019-03-29T00:40:29.079Z,57.53
2019-03-29T00:42:56.442Z,59.47
2019-03-29T00:45:23.671Z,67.20
2019-03-29T00:47:51.352Z,67.60
2019-03-29T00:50:18.560Z,62.53
2019-03-29T00:52:45.816Z,62.27
2019-03-29T00:55:13.191Z,62.90
2019-03-29T00:57:40.473Z,75.20
2019-03-29T01:00:08.069Z,67.03
2019-03-29T01:02:35.397Z,69.50
2019-03-29T01:05:03.552Z,64.80
2019-03-29T01:07:33.576Z,65.83
2019-03-29T01:10:05.002Z,58.90
2019-03-29T01:12:32.973Z,64.43
2019-03-29T01:15:00.832Z,67.57
2019-03-29T01:17:28.303Z,61.80
2019-03-29T01:19:56.097Z,69.10
2019-03-29T01:22:23.766Z,70.33
2019-03-29T01:24:51.357Z,61.73
2019-03-29T01:27:19.241Z,67.63
2019-03-29T01:29:46.664Z,64.90
2019-03-29T01:32:13.952Z,62.30
2019-03-29T01:34:41.351Z,60.80
2019-03-29T01:37:08.636Z,64.50
2019-03-29T01:39:35.794Z,65.90
2019-03-29T01:42:03.216Z,64.63
2019-03-29T01:44:30.573Z,55.07
2019-03-29T01:46:57.984Z,59.90
2019-03-29T01:49:25.219Z,61.00
2019-03-29T01:51:53.902Z,57.07
2019-03-29T01:54:21.337Z,59.80
2019-03-29T01:56:49.096Z,67.23
2019-03-29T01:59:17.091Z,61.60
2019-03-29T02:01:45.025Z,57.27
2019-03-29T02:04:12.210Z,65.27
2019-03-29T02:06:39.610Z,64.73
2019-03-29T02:09:06.844Z,58.60
2019-03-29T02:11:34.237Z,58.33
2019-03-29T02:14:01.620Z,56.23
2019-03-29T02:16:29.290Z,56.60
2019-03-29T02:18:57.285Z,53.87
2019-03-29T02:21:24.720Z,58.53
2019-03-29T02:23:52.047Z,54.90
2019-03-29T02:26:19.348Z,47.80
2019-03-29T02:28:46.996Z,52.60
2019-03-29T02:31:15.398Z,56.90
2019-03-29T02:33:43.221Z,49.50
2019-03-29T02:36:10.724Z,49.97
2019-03-29T02:38:54.112Z,54.13
2019-03-29T02:41:07.164Z,47.40
2019-03-29T02:43:34.486Z,52.07
2019-03-29T02:46:01.680Z,47.73
2019-03-29T02:48:29.021Z,55.17
2019-03-29T02:50:56.321Z,54.17
2019-03-29T02:53:23.536Z,50.63
2019-03-29T02:55:50.764Z,49.30
2019-03-29T02:58:17.945Z,48.20
2019-03-29T03:00:45.221Z,49.33
2019-03-29T03:03:12.349Z,51.77
2019-03-29T03:05:39.806Z,57.33
2019-03-29T03:08:06.959Z,55.50
2019-03-29T03:10:34.207Z,62.00
2019-03-29T03:13:01.325Z,57.37
2019-03-29T03:15:29.010Z,59.93
2019-03-29T03:17:56.135Z,70.10
2019-03-29T03:20:23.372Z,57.60
2019-03-29T03:22:50.609Z,64.83
2019-03-29T03:25:17.737Z,63.73
2019-03-29T03:27:44.987Z,67.93
2019-03-29T03:30:13.947Z,75.80
2019-03-29T03:32:41.345Z,66.57
2019-03-29T03:35:09.280Z,65.50
2019-03-29T03:37:36.982Z,66.33
2019-03-29T03:40:04.739Z,71.03
2019-03-29T03:42:31.887Z,76.43
2019-03-29T03:44:59.255Z,72.80
2019-03-29T03:47:26.419Z,64.30
2019-03-29T03:49:53.586Z,64.07
2019-03-29T03:52:21.048Z,75.57
2019-03-29T03:54:48.469Z,72.17
2019-03-29T03:57:16.417Z,76.93
2019-03-29T03:59:43.821Z,76.90
2019-03-29T04:02:11.074Z,77.57
2019-03-29T04:04:38.435Z,71.40
2019-03-29T04:07:05.693Z,78.77
2019-03-29T04:09:48.423Z,83.70
2019-03-29T04:12:01.913Z,85.27
2019-03-29T04:14:29.043Z,80.03
2019-03-29T04:16:56.211Z,77.30
2019-03-29T04:19:23.433Z,87.63
2019-03-29T04:21:50.718Z,85.53
2019-03-29T04:24:17.908Z,81.43
2019-03-29T04:26:45.127Z,79.53
2019-03-29T04:29:12.383Z,73.93
2019-03-29T04:31:39.527Z,76.00
2019-03-29T04:34:06.714Z,78.53
2019-03-29T04:36:33.978Z,81.57
2019-03-29T04:39:01.095Z,77.77
2019-03-29T04:41:28.251Z,72.03
2019-03-29T04:43:55.469Z,72.97
2019-03-29T04:46:22.657Z,84.77
2019-03-29T04:48:49.874Z,81.10
2019-03-29T04:51:17.017Z,80.27
2019-03-29T04:53:44.189Z,82.80
2019-03-29T04:56:11.616Z,82.17
2019-03-29T04:58:38.810Z,89.63
2019-03-29T05:01:05.962Z,73.10
2019-03-29T05:03:33.407Z,78.70
2019-03-29T05:06:00.698Z,75.07
2019-03-29T05:08:27.857Z,85.97
2019-03-29T05:10:55.269Z,79.37
2019-03-29T05:13:22.492Z,80.73
2019-03-29T05:15:49.835Z,83.50
2019-03-29T05:18:16.947Z,88.63
2019-03-29T05:20:44.366Z,77.40
2019-03-29T05:23:11.606Z,76.00
2019-03-29T05:25:38.771Z,80.17
2019-03-29T05:28:06.034Z,80.70
2019-03-29T05:30:33.188Z,72.37
2019-03-29T05:33:00.458Z,71.90
2019-03-29T05:35:27.628Z,81.73
2019-03-29T05:37:54.786Z,74.43
2019-03-29T05:40:34.386Z,81.50
2019-03-29T05:42:51.104Z,76.87
2019-03-29T05:45:18.336Z,82.37
2019-03-29T05:47:45.737Z,77.90
2019-03-29T05:50:13.088Z,81.43
2019-03-29T05:52:40.249Z,74.27
2019-03-29T05:55:07.461Z,74.77
2019-03-29T05:57:34.745Z,80.97
2019-03-29T06:00:02.015Z,70.93
2019-03-29T06:02:29.191Z,77.43
2019-03-29T06:04:56.377Z,72.40
2019-03-29T06:07:23.595Z,67.13
2019-03-29T06:09:50.753Z,77.97
2019-03-29T06:12:17.903Z,67.83
2019-03-29T06:14:45.073Z,71.10
2019-03-29T06:17:12.245Z,71.80
2019-03-29T06:19:39.528Z,68.40
2019-03-29T06:22:06.665Z,64.10
2019-03-29T06:24:33.829Z,78.13
2019-03-29T06:27:01.283Z,77.87
2019-03-29T06:29:28.501Z,73.60
2019-03-29T06:31:55.640Z,72.33
2019-03-29T06:34:22.796Z,67.53
2019-03-29T06:36:50.953Z,67.20
2019-03-29T06:39:21.258Z,65.50
2019-03-29T06:41:48.420Z,70.47
2019-03-29T06:44:15.555Z,73.53
2019-03-29T06:46:42.804Z,64.93
2019-03-29T06:49:09.955Z,72.13
2019-03-29T06:51:37.147Z,79.73
2019-03-29T06:54:04.279Z,84.90
2019-03-29T06:56:31.523Z,66.27
2019-03-29T06:58:58.810Z,67.57
2019-03-29T07:01:25.968Z,74.17
2019-03-29T07:03:53.104Z,65.43
2019-03-29T07:06:20.374Z,69.20
2019-03-29T07:08:47.520Z,68.67
2019-03-29T07:11:17.749Z,64.83
2019-03-29T07:13:56.575Z,74.73
2019-03-29T07:16:12.771Z,71.80
2019-03-29T07:18:40.255Z,59.57
2019-03-29T07:21:15.718Z,60.50
2019-03-29T07:23:36.460Z,65.13
2019-03-29T07:26:03.635Z,55.93
2019-03-29T07:28:30.882Z,61.30
2019-03-29T07:30:58.072Z,66.60
2019-03-29T07:33:26.365Z,66.40
2019-03-29T07:35:53.526Z,62.77
2019-03-29T07:38:20.700Z,59.70
2019-03-29T07:40:47.997Z,58.00
2019-03-29T07:43:15.420Z,61.47
2019-03-29T07:45:42.576Z,61.23
2019-03-29T07:48:13.000Z,79.27
2019-03-29T07:50:40.372Z,53.00
2019-03-29T07:53:07.586Z,57.00
2019-03-29T07:55:37.158Z,55.53
2019-03-29T07:58:03.940Z,60.73
2019-03-29T08:00:31.126Z,56.93
2019-03-29T08:02:58.293Z,56.07
2019-03-29T08:05:25.453Z,49.80
2019-03-29T08:07:52.604Z,50.97
2019-03-29T08:10:27.438Z,52.90
2019-03-29T08:12:49.678Z,53.67
2019-03-29T08:15:17.027Z,59.27
2019-03-29T08:17:44.200Z,64.40
2019-03-29T08:20:38.254Z,51.10
2019-03-29T08:22:40.739Z,53.10
2019-03-29T08:25:08.097Z,54.70
2019-03-29T08:27:35.225Z,53.20
2019-03-29T08:30:03.298Z,48.00
2019-03-29T08:32:30.537Z,52.50
2019-03-29T08:34:57.651Z,53.77
2019-03-29T08:37:24.796Z,57.00
2019-03-29T08:39:52.070Z,47.73
2019-03-29T08:42:19.226Z,49.77
2019-03-29T08:44:46.352Z,44.70
2019-03-29T08:47:13.623Z,46.50
2019-03-29T08:49:40.861Z,45.80
2019-03-29T08:52:08.156Z,53.50
2019-03-29T08:54:35.304Z,44.90
2019-03-29T08:57:02.476Z,44.57
2019-03-29T08:59:29.992Z,43.60
2019-03-29T09:02:00.878Z,45.90
2019-03-29T09:04:28.269Z,43.70
2019-03-29T09:06:55.520Z,47.97
2019-03-29T09:09:22.962Z,43.17
2019-03-29T09:11:50.195Z,53.37
2019-03-29T09:14:17.760Z,43.57
2019-03-29T09:16:44.998Z,46.60
2019-03-29T09:19:12.456Z,43.80
2019-03-29T09:21:39.570Z,49.73
2019-03-29T09:24:20.745Z,47.97
2019-03-29T09:26:35.853Z,48.53
2019-03-29T09:29:03.021Z,40.00
2019-03-29T09:31:30.848Z,39.27
2019-03-29T09:33:58.703Z,48.37
2019-03-29T09:36:26.085Z,43.13
2019-03-29T09:38:53.243Z,40.97
2019-03-29T09:41:20.424Z,44.60
2019-03-29T09:43:47.748Z,43.57
2019-03-29T09:46:15.017Z,36.17
2019-03-29T09:48:42.198Z,44.40
2019-03-29T09:51:09.432Z,35.50
2019-03-29T09:53:37.057Z,38.03
2019-03-29T09:56:04.208Z,42.83
2019-03-29T09:58:31.383Z,41.33
2019-03-29T10:00:58.528Z,31.57
2019-03-29T10:03:30.512Z,32.20
2019-03-29T10:05:57.636Z,40.47
2019-03-29T10:08:24.802Z,36.50
2019-03-29T10:10:51.946Z,34.77
2019-03-29T10:13:19.068Z,29.33
2019-03-29T10:15:46.210Z,20.03
2019-03-29T10:18:13.345Z,26.57
2019-03-29T10:20:40.489Z,22.10
2019-03-29T10:23:07.688Z,24.80
2019-03-29T10:25:34.898Z,23.93
2019-03-29T10:28:02.163Z,24.70
2019-03-29T10:30:37.076Z,42.03
2019-03-29T10:33:04.399Z,30.83
2019-03-29T10:35:31.624Z,20.67
2019-03-29T10:37:58.789Z,19.77
2019-03-29T10:40:26.035Z,24.73
2019-03-29T10:42:57.999Z,29.80
2019-03-29T10:45:22.366Z,29.97
2019-03-29T10:47:49.573Z,30.83
2019-03-29T10:50:16.733Z,21.90
2019-03-29T10:52:43.915Z,21.90
2019-03-29T10:55:11.304Z,15.60
2019-03-29T10:57:38.571Z,20.30
2019-03-29T11:00:09.555Z,34.47
2019-03-29T11:02:37.050Z,23.97
2019-03-29T11:05:04.479Z,23.00
2019-03-29T11:07:31.737Z,14.37
2019-03-29T11:09:58.899Z,8.00
2019-03-29T11:12:26.132Z,10.00
2019-03-29T11:14:53.386Z,16.00
2019-03-29T11:17:20.549Z,8.30
2019-03-29T11:19:47.674Z,6.77
2019-03-29T11:22:14.855Z,8.57
2019-03-29T11:24:42.020Z,10.50
2019-03-29T11:27:09.219Z,8.47
2019-03-29T11:29:36.470Z,8.00
2019-03-29T11:32:04.020Z,8.47
2019-03-29T11:34:31.139Z,8.53
2019-03-29T11:36:58.578Z,8.90
2019-03-29T11:39:27.403Z,12.90
2019-03-29T11:41:56.010Z,13.87
2019-03-29T11:44:23.369Z,12.30
2019-03-29T11:46:50.589Z,5.23
2019-03-29T11:49:17.925Z,7.43
2019-03-29T11:51:45.076Z,7.23
2019-03-29T11:54:12.244Z,16.13
2019-03-29T11:56:39.362Z,14.70
2019-03-29T11:59:06.583Z,10.63
2019-03-29T12:01:33.793Z,18.03
2019-03-29T12:04:00.944Z,12.27
2019-03-29T12:06:28.117Z,6.40
2019-03-29T12:08:57.135Z,16.93
2019-03-29T12:11:24.733Z,9.20
2019-03-29T12:13:51.962Z,10.60
2019-03-29T12:16:20.041Z,6.50
2019-03-29T12:18:47.183Z,10.33
2019-03-29T12:21:14.408Z,10.20
2019-03-29T12:23:42.976Z,4.83
2019-03-29T12:26:10.474Z,7.03
2019-03-29T12:28:37.646Z,7.33
2019-03-29T12:31:05.075Z,18.80
2019-03-29T12:33:32.368Z,6.30
2019-03-29T12:35:59.979Z,6.30
2019-03-29T12:38:27.111Z,12.13
2019-03-29T12:40:54.545Z,11.93
2019-03-29T12:43:21.729Z,9.00
2019-03-29T12:45:48.927Z,8.03
2019-03-29T12:48:16.247Z,11.03
2019-03-29T12:50:43.671Z,5.60
2019-03-29T12:53:10.811Z,9.30
2019-03-29T12:55:38.068Z,12.90
2019-03-29T12:58:05.423Z,6.53
2019-03-29T13:00:32.801Z,5.43
2019-03-29T13:02:59.995Z,8.20
2019-03-29T13:05:27.199Z,9.40
2019-03-29T13:07:54.595Z,7.70
2019-03-29T13:10:21.932Z,7.40
2019-03-29T13:12:49.131Z,6.27
2019-03-29T13:15:17.488Z,8.77
2019-03-29T13:17:45.077Z,11.90
2019-03-29T13:20:12.801Z,8.30
2019-03-29T13:22:39.975Z,9.47
2019-03-29T13:25:07.884Z,11.33
2019-03-29T13:27:35.340Z,9.50
2019-03-29T13:30:03.151Z,8.83
2019-03-29T13:32:33.443Z,9.77
2019-03-29T13:35:00.475Z,10.20
2019-03-29T13:37:27.876Z,14.93
2019-03-29T13:39:55.068Z,10.60
2019-03-29T13:42:22.787Z,13.50
2019-03-29T13:44:49.971Z,11.60
2019-03-29T13:47:18.223Z,11.43
2019-03-29T13:49:45.634Z,10.13
2019-03-29T13:52:12.800Z,9.93
2019-03-29T13:54:40.015Z,10.00
2019-03-29T13:57:07.226Z,11.67
2019-03-29T13:59:34.868Z,15.90
2019-03-29T14:02:01.992Z,11.20
2019-03-29T14:04:29.437Z,21.97
2019-03-29T14:06:56.663Z,14.73
2019-03-29T14:09:23.833Z,13.50
2019-03-29T14:11:51.053Z,15.60
2019-03-29T14:14:18.208Z,14.07
2019-03-29T14:16:45.665Z,16.70
2019-03-29T14:19:12.991Z,17.23
2019-03-29T14:21:40.164Z,13.70
2019-03-29T14:24:07.295Z,17.07
2019-03-29T14:26:34.493Z,12.70
2019-03-29T14:29:01.756Z,15.47
2019-03-29T14:31:28.891Z,13.90
2019-03-29T14:33:56.078Z,15.77
2019-03-29T14:36:23.213Z,15.17
2019-03-29T14:38:50.361Z,16.23
2019-03-29T14:41:17.553Z,12.50
2019-03-29T14:43:44.778Z,16.43
2019-03-29T14:46:12.045Z,18.00
2019-03-29T14:48:39.291Z,13.13
2019-03-29T14:51:06.477Z,15.43
2019-03-29T14:53:33.631Z,17.67
2019-03-29T14:56:01.117Z,14.37
2019-03-29T14:58:28.643Z,12.73
2019-03-29T15:00:56.082Z,12.53
2019-03-29T15:03:23.470Z,15.17
2019-03-29T15:05:50.708Z,15.80
2019-03-29T15:08:18.228Z,12.13
2019-03-29T15:10:45.949Z,14.63
2019-03-29T15:13:14.070Z,11.93
2019-03-29T15:15:41.228Z,11.37
2019-03-29T15:18:08.637Z,12.77
2019-03-29T15:20:35.841Z,10.97
2019-03-29T15:23:03.209Z,11.20
2019-03-29T15:25:30.443Z,13.60
2019-03-29T15:27:57.584Z,11.70
2019-03-29T15:30:24.713Z,25.57
2019-03-29T15:32:51.879Z,12.30
2019-03-29T15:35:20.892Z,14.53
2019-03-29T15:37:48.204Z,15.80
2019-03-29T15:40:15.804Z,17.20
2019-03-29T15:42:43.153Z,21.77
2019-03-29T15:45:20.249Z,11.27
2019-03-29T15:47:40.672Z,12.20
2019-03-29T15:50:08.006Z,13.80
2019-03-29T15:52:35.212Z,29.83
2019-03-29T15:55:02.446Z,10.83
2019-03-29T15:57:29.637Z,17.57
2019-03-29T15:59:56.760Z,20.83
2019-03-29T16:02:23.915Z,12.67
2019-03-29T16:04:51.172Z,9.97
2019-03-29T16:07:18.350Z,13.27
2019-03-29T16:09:45.593Z,21.13
2019-03-29T16:12:12.738Z,10.80
2019-03-29T16:14:39.936Z,9.50
2019-03-29T16:17:07.130Z,14.03
2019-03-29T16:19:34.305Z,12.57
2019-03-29T16:22:01.582Z,12.70
2019-03-29T16:24:28.881Z,13.40
2019-03-29T16:26:56.068Z,37.13
2019-03-29T16:29:23.649Z,15.37
2019-03-29T16:31:50.841Z,14.17
2019-03-29T16:34:18.099Z,12.87
2019-03-29T16:36:45.389Z,12.43
2019-03-29T16:39:12.667Z,17.63
2019-03-29T16:41:40.268Z,9.63
2019-03-29T16:44:07.477Z,30.17
2019-03-29T16:46:34.698Z,17.80
2019-03-29T16:49:03.125Z,28.37
2019-03-29T16:51:30.331Z,15.30
2019-03-29T16:53:58.025Z,12.20
2019-03-29T16:56:25.319Z,15.33
2019-03-29T16:58:52.465Z,14.83
2019-03-29T17:01:19.647Z,19.00
2019-03-29T17:03:46.887Z,29.23
2019-03-29T17:06:14.224Z,16.00
2019-03-29T17:08:41.410Z,17.20
2019-03-29T17:11:08.705Z,24.43
2019-03-29T17:13:36.161Z,18.03
2019-03-29T17:16:03.945Z,15.70
2019-03-29T17:18:31.163Z,13.97
2019-03-29T17:20:58.492Z,17.03
2019-03-29T17:23:25.924Z,20.23
2019-03-29T17:25:53.100Z,18.63
2019-03-29T17:28:20.312Z,19.50
2019-03-29T17:30:51.633Z,13.90
2019-03-29T17:33:22.200Z,20.17
2019-03-29T17:35:47.912Z,16.10
2019-03-29T17:38:15.097Z,16.20
2019-03-29T17:40:42.477Z,18.07
2019-03-29T17:43:09.668Z,16.40
2019-03-29T17:45:36.816Z,21.37
2019-03-29T17:48:04.479Z,19.93
2019-03-29T17:50:31.650Z,18.17
2019-03-29T17:52:59.050Z,18.50
2019-03-29T17:55:26.305Z,25.30
2019-03-29T17:57:53.521Z,32.60
2019-03-29T18:00:22.175Z,26.97
2019-03-29T18:02:49.403Z,24.03
2019-03-29T18:05:16.587Z,21.20
2019-03-29T18:07:43.760Z,19.20
2019-03-29T18:10:11.393Z,27.93
2019-03-29T18:12:39.045Z,21.93
2019-03-29T18:15:06.771Z,26.23
2019-03-29T18:17:33.996Z,20.30
2019-03-29T18:20:01.227Z,17.17
2019-03-29T18:22:28.413Z,18.50
2019-03-29T18:24:55.576Z,21.20
2019-03-29T18:27:22.703Z,24.77
2019-03-29T18:29:49.965Z,19.90
2019-03-29T18:32:18.503Z,20.27
2019-03-29T18:34:46.021Z,21.47
2019-03-29T18:37:14.501Z,24.57
2019-03-29T18:39:42.790Z,24.70
2019-03-29T18:42:10.021Z,24.53
2019-03-29T18:44:37.244Z,25.50
2019-03-29T18:47:04.464Z,28.80
2019-03-29T18:49:31.675Z,28.57
2019-03-29T18:51:58.824Z,34.83
2019-03-29T18:54:26.009Z,33.17
2019-03-29T18:56:53.236Z,31.40
2019-03-29T18:59:20.659Z,27.43
2019-03-29T19:01:47.841Z,32.90
2019-03-29T19:04:15.093Z,24.07
2019-03-29T19:06:42.454Z,34.20
2019-03-29T19:09:09.607Z,27.90
2019-03-29T19:11:37.215Z,30.97
2019-03-29T19:14:04.480Z,26.20
2019-03-29T19:16:31.701Z,22.40
2019-03-29T19:19:09.390Z,25.20
2019-03-29T19:21:27.977Z,22.40
2019-03-29T19:23:55.185Z,28.17
2019-03-29T19:26:22.341Z,26.60
2019-03-29T19:28:49.524Z,27.90
2019-03-29T19:31:16.853Z,27.20
2019-03-29T19:33:44.082Z,26.10
2019-03-29T19:36:11.225Z,30.77
2019-03-29T19:38:38.491Z,20.17
2019-03-29T19:41:05.657Z,26.00
2019-03-29T19:43:32.825Z,28.50
2019-03-29T19:46:00.113Z,28.10
2019-03-29T19:48:27.258Z,27.80
2019-03-29T19:50:54.510Z,29.50
2019-03-29T19:53:21.841Z,27.40
2019-03-29T19:55:49.155Z,34.00
2019-03-29T19:58:16.559Z,29.83
2019-03-29T20:00:44.375Z,27.83
2019-03-29T20:03:11.661Z,27.60
2019-03-29T20:05:39.484Z,29.60
2019-03-29T20:08:07.429Z,32.30
2019-03-29T20:10:34.925Z,38.67
2019-03-29T20:13:02.587Z,32.80
2019-03-29T20:15:29.805Z,31.13
2019-03-29T20:17:57.087Z,26.80
2019-03-29T20:20:25.174Z,28.73
2019-03-29T20:22:54.205Z,28.17
2019-03-29T20:25:21.724Z,28.67
2019-03-29T20:27:48.921Z,23.47
2019-03-29T20:30:16.379Z,27.20
2019-03-29T20:32:43.649Z,26.63
2019-03-29T20:35:10.850Z,26.60
2019-03-29T20:37:38.199Z,23.10
2019-03-29T20:40:06.020Z,23.97
2019-03-29T20:42:33.193Z,36.93
2019-03-29T20:45:00.500Z,24.53
2019-03-29T20:47:41.101Z,26.10
2019-03-29T20:49:56.709Z,25.67
2019-03-29T20:52:23.966Z,25.13
2019-03-29T20:54:51.293Z,20.57
2019-03-29T20:57:18.574Z,21.07
2019-03-29T20:59:45.928Z,23.70
2019-03-29T21:02:13.309Z,23.93
2019-03-29T21:04:40.479Z,27.43
2019-03-29T21:07:07.655Z,27.07
2019-03-29T21:09:34.919Z,19.90
2019-03-29T21:12:02.103Z,21.80
2019-03-29T21:14:29.261Z,26.00
2019-03-29T21:16:56.489Z,25.60
2019-03-29T21:19:24.028Z,17.37
2019-03-29T21:21:51.306Z,19.80
2019-03-29T21:24:18.584Z,21.83
2019-03-29T21:26:46.168Z,19.53
2019-03-29T21:29:13.592Z,24.90
2019-03-29T21:31:41.268Z,30.20
2019-03-29T21:34:08.411Z,24.03
2019-03-29T21:36:35.792Z,20.30
2019-03-29T21:39:07.112Z,27.63
2019-03-29T21:41:34.294Z,23.37
2019-03-29T21:44:01.509Z,22.50
2019-03-29T21:46:28.745Z,18.37
2019-03-29T21:48:56.093Z,18.93
2019-03-29T21:51:23.408Z,20.47
2019-03-29T21:53:50.722Z,22.90
2019-03-29T21:56:17.868Z,23.33
2019-03-29T21:58:45.107Z,23.20
2019-03-29T22:01:12.544Z,22.83
2019-03-29T22:03:39.811Z,27.47
2019-03-29T22:06:06.955Z,22.50
2019-03-29T22:08:34.908Z,22.10
2019-03-29T22:11:02.172Z,23.00
2019-03-29T22:13:29.444Z,28.13
2019-03-29T22:15:57.596Z,25.47
2019-03-29T22:18:37.262Z,27.67
2019-03-29T22:20:55.240Z,24.53
2019-03-29T22:23:22.522Z,27.03
2019-03-29T22:25:50.172Z,27.13
2019-03-29T22:28:17.353Z,25.57
2019-03-29T22:30:46.240Z,30.17
2019-03-29T22:33:13.529Z,26.87
2019-03-29T22:35:40.708Z,30.80
2019-03-29T22:38:07.933Z,27.07
2019-03-29T22:40:35.483Z,26.73
2019-03-29T22:43:03.507Z,23.97
2019-03-29T22:45:30.825Z,21.07
2019-03-29T22:47:57.976Z,26.37
2019-03-29T22:50:25.118Z,25.53
2019-03-29T22:52:54.559Z,22.90
2019-03-29T22:55:21.418Z,22.57
2019-03-29T22:57:48.685Z,24.60
2019-03-29T23:00:25.400Z,29.10
2019-03-29T23:02:52.606Z,28.43
2019-03-29T23:05:19.776Z,23.90
2019-03-29T23:07:47.208Z,23.97
2019-03-29T23:10:14.682Z,28.23
2019-03-29T23:12:43.265Z,25.57
2019-03-29T23:15:12.901Z,29.10
2019-03-29T23:17:41.273Z,30.10
2019-03-29T23:20:10.645Z,28.83
2019-03-29T23:22:39.168Z,30.07
2019-03-29T23:25:07.546Z,30.60
2019-03-29T23:27:36.250Z,28.57
2019-03-29T23:30:05.795Z,29.80
2019-03-29T23:32:34.265Z,29.70
2019-03-29T23:35:01.609Z,25.57
2019-03-29T23:37:29.728Z,30.30
2019-03-29T23:39:58.746Z,29.23
2019-03-29T23:42:27.122Z,31.67
2019-03-29T23:44:54.544Z,26.37
2019-03-29T23:47:21.797Z,53.73
2019-03-29T23:49:49.996Z,24.40
2019-03-29T23:52:17.244Z,26.27
2019-03-29T23:54:44.448Z,34.67
2019-03-29T23:57:11.737Z,34.80
2019-03-29T23:59:39.766Z,29.70
